sensor_id;sensor_type;location;lat;lon;timestamp;P1;durP1;ratioP1;P2;durP2;ratioP2
75504;SDS011;64085;54.974;73.410;2023-02-28T07:04:35;5.90;;;2.75;;
75504;SDS011;64085;54.974;73.410;2023-02-28T07:07:01;7.95;;;3.90;;
75504;SDS011;64085;54.974;73.410;2023-02-28T07:09:27;8.57;;;3.75;;
75504;SDS011;64085;54.974;73.410;2023-02-28T07:11:56;8.15;;;3.20;;
75504;SDS011;64085;54.974;73.410;2023-02-28T07:14:23;4.00;;;2.70;;
75504;SDS011;64085;54.974;73.410;2023-02-28T07:16:48;7.28;;;4.28;;
75504;SDS011;64085;54.974;73.410;2023-02-28T07:19:15;6.40;;;3.33;;
75504;SDS011;64085;54.974;73.410;2023-02-28T07:21:41;6.80;;;3.40;;
75504;SDS011;64085;54.974;73.410;2023-02-28T07:24:06;11.15;;;4.43;;
75504;SDS011;64085;54.974;73.410;2023-02-28T07:26:32;1.75;;;1.33;;
75504;SDS011;64085;54.974;73.410;2023-02-28T07:29:01;4.93;;;3.53;;
75504;SDS011;64085;54.974;73.410;2023-02-28T07:31:27;4.60;;;2.17;;
75504;SDS011;64085;54.974;73.410;2023-02-28T07:33:53;4.20;;;3.17;;
75504;SDS011;64085;54.974;73.410;2023-02-28T07:36:19;6.30;;;2.80;;
75504;SDS011;64085;54.974;73.410;2023-02-28T07:38:45;9.13;;;5.45;;
75504;SDS011;64085;54.974;73.410;2023-02-28T07:41:13;10.05;;;5.72;;
75504;SDS011;64085;54.974;73.410;2023-02-28T07:43:40;8.52;;;3.97;;
75504;SDS011;64085;54.974;73.410;2023-02-28T07:46:10;7.43;;;2.92;;
75504;SDS011;64085;54.974;73.410;2023-02-28T07:48:37;8.60;;;4.38;;
75504;SDS011;64085;54.974;73.410;2023-02-28T07:51:03;4.65;;;2.55;;
75504;SDS011;64085;54.974;73.410;2023-02-28T07:53:29;8.27;;;3.67;;
75504;SDS011;64085;54.974;73.410;2023-02-28T07:55:58;6.38;;;3.58;;
75504;SDS011;64085;54.974;73.410;2023-02-28T07:58:26;7.93;;;4.32;;
75504;SDS011;64085;54.974;73.410;2023-02-28T08:00:52;3.88;;;2.25;;
75504;SDS011;64085;54.974;73.410;2023-02-28T08:03:18;6.20;;;2.92;;
75504;SDS011;64085;54.974;73.410;2023-02-28T08:05:46;3.08;;;1.52;;
75504;SDS011;64085;54.974;73.410;2023-02-28T08:08:13;11.25;;;5.18;;
75504;SDS011;64085;54.974;73.410;2023-02-28T08:10:39;9.00;;;4.30;;
75504;SDS011;64085;54.974;73.410;2023-02-28T08:13:05;8.43;;;5.03;;
75504;SDS011;64085;54.974;73.410;2023-02-28T08:15:30;11.23;;;4.93;;
75504;SDS011;64085;54.974;73.410;2023-02-28T08:17:56;5.60;;;2.83;;
75504;SDS011;64085;54.974;73.410;2023-02-28T08:20:22;6.70;;;4.28;;
75504;SDS011;64085;54.974;73.410;2023-02-28T08:22:49;4.28;;;2.92;;
75504;SDS011;64085;54.974;73.410;2023-02-28T08:25:15;2.78;;;2.15;;
75504;SDS011;64085;54.974;73.410;2023-02-28T08:27:41;6.10;;;3.75;;
75504;SDS011;64085;54.974;73.410;2023-02-28T08:30:07;6.70;;;3.97;;
75504;SDS011;64085;54.974;73.410;2023-02-28T08:32:35;11.20;;;3.53;;
75504;SDS011;64085;54.974;73.410;2023-02-28T08:35:01;6.60;;;2.63;;
75504;SDS011;64085;54.974;73.410;2023-02-28T08:37:28;5.03;;;2.80;;
75504;SDS011;64085;54.974;73.410;2023-02-28T08:39:53;8.65;;;4.57;;
75504;SDS011;64085;54.974;73.410;2023-02-28T08:42:19;4.30;;;2.65;;
75504;SDS011;64085;54.974;73.410;2023-02-28T08:44:45;11.00;;;3.45;;
75504;SDS011;64085;54.974;73.410;2023-02-28T08:47:11;10.70;;;4.60;;
75504;SDS011;64085;54.974;73.410;2023-02-28T08:49:36;6.63;;;4.63;;
75504;SDS011;64085;54.974;73.410;2023-02-28T08:52:02;8.60;;;3.58;;
75504;SDS011;64085;54.974;73.410;2023-02-28T08:54:28;11.07;;;4.15;;
75504;SDS011;64085;54.974;73.410;2023-02-28T08:56:56;8.00;;;3.97;;
75504;SDS011;64085;54.974;73.410;2023-02-28T08:59:22;4.97;;;2.55;;
75504;SDS011;64085;54.974;73.410;2023-02-28T09:01:48;6.30;;;2.80;;
75504;SDS011;64085;54.974;73.410;2023-02-28T09:04:13;9.00;;;4.88;;
75504;SDS011;64085;54.974;73.410;2023-02-28T09:06:39;11.40;;;7.18;;
75504;SDS011;64085;54.974;73.410;2023-02-28T09:09:05;8.70;;;4.63;;
75504;SDS011;64085;54.974;73.410;2023-02-28T09:11:32;7.85;;;4.28;;
75504;SDS011;64085;54.974;73.410;2023-02-28T09:14:00;9.50;;;3.88;;
75504;SDS011;64085;54.974;73.410;2023-02-28T09:16:28;3.17;;;1.58;;
75504;SDS011;64085;54.974;73.410;2023-02-28T09:18:55;3.97;;;2.17;;
75504;SDS011;64085;54.974;73.410;2023-02-28T09:21:21;5.85;;;3.22;;
75504;SDS011;64085;54.974;73.410;2023-02-28T09:23:47;9.80;;;4.72;;
75504;SDS011;64085;54.974;73.410;2023-02-28T09:26:18;7.38;;;3.90;;
75504;SDS011;64085;54.974;73.410;2023-02-28T09:28:47;9.18;;;4.15;;
75504;SDS011;64085;54.974;73.410;2023-02-28T09:31:14;9.32;;;4.05;;
75504;SDS011;64085;54.974;73.410;2023-02-28T09:33:41;9.73;;;4.25;;
75504;SDS011;64085;54.974;73.410;2023-02-28T09:36:07;7.18;;;4.15;;
75504;SDS011;64085;54.974;73.410;2023-02-28T09:38:32;14.18;;;6.15;;
75504;SDS011;64085;54.974;73.410;2023-02-28T09:41:00;10.52;;;4.85;;
75504;SDS011;64085;54.974;73.410;2023-02-28T09:43:35;9.93;;;5.28;;
75504;SDS011;64085;54.974;73.410;2023-02-28T09:46:23;13.10;;;4.63;;
75504;SDS011;64085;54.974;73.410;2023-02-28T09:48:53;8.23;;;5.40;;
75504;SDS011;64085;54.974;73.410;2023-02-28T09:54:01;7.78;;;4.30;;
75504;SDS011;64085;54.974;73.410;2023-02-28T09:56:37;5.90;;;3.55;;
75504;SDS011;64085;54.974;73.410;2023-02-28T10:01:35;10.52;;;4.63;;
75504;SDS011;64085;54.974;73.410;2023-02-28T10:06:48;6.20;;;4.18;;
75504;SDS011;64085;54.974;73.410;2023-02-28T10:09:17;11.20;;;5.35;;
75504;SDS011;64085;54.974;73.410;2023-02-28T10:11:48;11.43;;;6.82;;
75504;SDS011;64085;54.974;73.410;2023-02-28T10:14:35;10.27;;;5.57;;
75504;SDS011;64085;54.974;73.410;2023-02-28T10:17:14;11.10;;;5.63;;
75504;SDS011;64085;54.974;73.410;2023-02-28T10:22:31;12.93;;;7.05;;
75504;SDS011;64085;54.974;73.410;2023-02-28T10:25:24;14.43;;;7.75;;
75504;SDS011;64085;54.974;73.410;2023-02-28T10:27:52;5.90;;;4.07;;
75504;SDS011;64085;54.974;73.410;2023-02-28T10:30:19;12.40;;;6.38;;
75504;SDS011;64085;54.974;73.410;2023-02-28T10:32:47;7.78;;;4.07;;
75504;SDS011;64085;54.974;73.410;2023-02-28T10:35:17;10.63;;;6.10;;
75504;SDS011;64085;54.974;73.410;2023-02-28T10:37:51;8.77;;;4.70;;
75504;SDS011;64085;54.974;73.410;2023-02-28T10:45:21;8.57;;;4.57;;
75504;SDS011;64085;54.974;73.410;2023-02-28T10:47:49;8.70;;;5.53;;
75504;SDS011;64085;54.974;73.410;2023-02-28T10:50:28;3.80;;;2.97;;
75504;SDS011;64085;54.974;73.410;2023-02-28T11:01:45;11.93;;;6.35;;
75504;SDS011;64085;54.974;73.410;2023-02-28T11:09:34;9.30;;;5.95;;
75504;SDS011;64085;54.974;73.410;2023-02-28T11:12:04;14.13;;;8.55;;
75504;SDS011;64085;54.974;73.410;2023-02-28T11:14:52;7.43;;;4.47;;
75504;SDS011;64085;54.974;73.410;2023-02-28T11:17:24;13.60;;;7.15;;
75504;SDS011;64085;54.974;73.410;2023-02-28T11:19:57;13.05;;;5.97;;
75504;SDS011;64085;54.974;73.410;2023-02-28T11:22:28;7.30;;;3.45;;
75504;SDS011;64085;54.974;73.410;2023-02-28T11:27:39;9.07;;;4.70;;
75504;SDS011;64085;54.974;73.410;2023-02-28T11:32:57;14.23;;;7.68;;
75504;SDS011;64085;54.974;73.410;2023-02-28T11:35:24;9.25;;;5.38;;
75504;SDS011;64085;54.974;73.410;2023-02-28T11:37:54;12.98;;;6.60;;
75504;SDS011;64085;54.974;73.410;2023-02-28T11:41:05;7.72;;;3.90;;
75504;SDS011;64085;54.974;73.410;2023-02-28T11:43:28;9.23;;;5.15;;
75504;SDS011;64085;54.974;73.410;2023-02-28T11:52:05;9.85;;;5.90;;
75504;SDS011;64085;54.974;73.410;2023-02-28T12:05:35;14.45;;;7.07;;
75504;SDS011;64085;54.974;73.410;2023-02-28T12:11:19;13.57;;;7.35;;
75504;SDS011;64085;54.974;73.410;2023-02-28T12:14:53;11.43;;;5.68;;
75504;SDS011;64085;54.974;73.410;2023-02-28T12:16:57;11.18;;;6.07;;
75504;SDS011;64085;54.974;73.410;2023-02-28T12:27:33;10.25;;;5.20;;
75504;SDS011;64085;54.974;73.410;2023-02-28T12:32:38;11.70;;;7.75;;
75504;SDS011;64085;54.974;73.410;2023-02-28T12:35:19;13.82;;;7.15;;
75504;SDS011;64085;54.974;73.410;2023-02-28T12:38:20;10.48;;;5.72;;
75504;SDS011;64085;54.974;73.410;2023-02-28T12:43:43;15.88;;;7.28;;
75504;SDS011;64085;54.974;73.410;2023-02-28T12:48:46;14.35;;;7.43;;
75504;SDS011;64085;54.974;73.410;2023-02-28T12:51:16;11.57;;;7.40;;
75504;SDS011;64085;54.974;73.410;2023-02-28T12:53:47;8.80;;;4.80;;
75504;SDS011;64085;54.974;73.410;2023-02-28T12:56:28;15.68;;;7.28;;
75504;SDS011;64085;54.974;73.410;2023-02-28T12:59:02;13.73;;;6.63;;
75504;SDS011;64085;54.974;73.410;2023-02-28T13:01:39;15.05;;;8.23;;
75504;SDS011;64085;54.974;73.410;2023-02-28T13:09:55;14.00;;;7.28;;
75504;SDS011;64085;54.974;73.410;2023-02-28T13:12:23;14.77;;;7.10;;
75504;SDS011;64085;54.974;73.410;2023-02-28T13:14:49;11.88;;;6.43;;
75504;SDS011;64085;54.974;73.410;2023-02-28T13:17:37;11.63;;;5.95;;
75504;SDS011;64085;54.974;73.410;2023-02-28T13:20:13;16.60;;;8.40;;
75504;SDS011;64085;54.974;73.410;2023-02-28T13:22:45;10.50;;;5.60;;
75504;SDS011;64085;54.974;73.410;2023-02-28T13:27:48;15.57;;;8.38;;
75504;SDS011;64085;54.974;73.410;2023-02-28T13:35:45;13.52;;;6.93;;
75504;SDS011;64085;54.974;73.410;2023-02-28T13:38:22;15.63;;;9.13;;
75504;SDS011;64085;54.974;73.410;2023-02-28T13:40:50;14.02;;;8.05;;
75504;SDS011;64085;54.974;73.410;2023-02-28T13:43:16;16.27;;;7.43;;
75504;SDS011;64085;54.974;73.410;2023-02-28T13:46:06;18.17;;;8.00;;
75504;SDS011;64085;54.974;73.410;2023-02-28T13:48:35;17.95;;;8.73;;
75504;SDS011;64085;54.974;73.410;2023-02-28T13:51:02;11.85;;;6.32;;
75504;SDS011;64085;54.974;73.410;2023-02-28T13:54:26;11.05;;;5.15;;
75504;SDS011;64085;54.974;73.410;2023-02-28T13:59:44;14.73;;;9.18;;
75504;SDS011;64085;54.974;73.410;2023-02-28T14:02:28;19.05;;;10.52;;
75504;SDS011;64085;54.974;73.410;2023-02-28T14:07:28;17.75;;;8.82;;
75504;SDS011;64085;54.974;73.410;2023-02-28T14:09:59;12.30;;;7.03;;
75504;SDS011;64085;54.974;73.410;2023-02-28T14:18:28;22.63;;;10.02;;
75504;SDS011;64085;54.974;73.410;2023-02-28T14:21:01;12.93;;;5.82;;
75504;SDS011;64085;54.974;73.410;2023-02-28T14:29:01;17.27;;;10.10;;
75504;SDS011;64085;54.974;73.410;2023-02-28T14:34:30;16.25;;;8.63;;
75504;SDS011;64085;54.974;73.410;2023-02-28T14:37:05;18.27;;;8.38;;
75504;SDS011;64085;54.974;73.410;2023-02-28T14:39:40;16.92;;;8.38;;
75504;SDS011;64085;54.974;73.410;2023-02-28T14:42:27;17.23;;;9.45;;
75504;SDS011;64085;54.974;73.410;2023-02-28T14:45:05;14.88;;;7.93;;
75504;SDS011;64085;54.974;73.410;2023-02-28T14:47:31;6.78;;;4.15;;
75504;SDS011;64085;54.974;73.410;2023-02-28T14:49:59;20.13;;;5.85;;
75504;SDS011;64085;54.974;73.410;2023-02-28T14:52:27;5.72;;;3.72;;
75504;SDS011;64085;54.974;73.410;2023-02-28T14:55:00;14.80;;;7.88;;
75504;SDS011;64085;54.974;73.410;2023-02-28T14:57:30;23.25;;;12.70;;
75504;SDS011;64085;54.974;73.410;2023-02-28T14:59:58;15.10;;;8.57;;
75504;SDS011;64085;54.974;73.410;2023-02-28T15:02:24;14.30;;;7.30;;
75504;SDS011;64085;54.974;73.410;2023-02-28T15:04:55;20.17;;;8.88;;
75504;SDS011;64085;54.974;73.410;2023-02-28T15:07:23;10.70;;;5.32;;
75504;SDS011;64085;54.974;73.410;2023-02-28T15:13:05;13.93;;;6.82;;
75504;SDS011;64085;54.974;73.410;2023-02-28T15:18:25;12.25;;;6.95;;
75504;SDS011;64085;54.974;73.410;2023-02-28T15:20:58;18.50;;;8.38;;
75504;SDS011;64085;54.974;73.410;2023-02-28T15:23:29;14.23;;;7.68;;
75504;SDS011;64085;54.974;73.410;2023-02-28T15:25:56;10.93;;;5.75;;
75504;SDS011;64085;54.974;73.410;2023-02-28T15:28:22;11.65;;;6.93;;
75504;SDS011;64085;54.974;73.410;2023-02-28T15:31:00;15.18;;;8.45;;
75504;SDS011;64085;54.974;73.410;2023-02-28T15:33:28;16.55;;;7.90;;
75504;SDS011;64085;54.974;73.410;2023-02-28T15:36:05;15.57;;;10.50;;
75504;SDS011;64085;54.974;73.410;2023-02-28T15:38:33;15.30;;;8.02;;
75504;SDS011;64085;54.974;73.410;2023-02-28T15:41:00;12.20;;;7.32;;
75504;SDS011;64085;54.974;73.410;2023-02-28T15:43:33;8.68;;;4.90;;
75504;SDS011;64085;54.974;73.410;2023-02-28T15:46:06;10.38;;;4.30;;
75504;SDS011;64085;54.974;73.410;2023-02-28T15:48:35;10.18;;;6.53;;
75504;SDS011;64085;54.974;73.410;2023-02-28T15:51:08;13.02;;;7.10;;
75504;SDS011;64085;54.974;73.410;2023-02-28T15:53:51;12.23;;;7.47;;
75504;SDS011;64085;54.974;73.410;2023-02-28T15:56:29;13.77;;;6.75;;
75504;SDS011;64085;54.974;73.410;2023-02-28T15:59:00;11.90;;;6.65;;
75504;SDS011;64085;54.974;73.410;2023-02-28T16:01:31;14.30;;;7.75;;
75504;SDS011;64085;54.974;73.410;2023-02-28T16:04:03;12.73;;;6.97;;
75504;SDS011;64085;54.974;73.410;2023-02-28T16:06:42;14.45;;;7.45;;
75504;SDS011;64085;54.974;73.410;2023-02-28T16:09:11;18.35;;;8.65;;
75504;SDS011;64085;54.974;73.410;2023-02-28T16:11:40;16.02;;;7.28;;
75504;SDS011;64085;54.974;73.410;2023-02-28T16:14:15;11.50;;;7.13;;
75504;SDS011;64085;54.974;73.410;2023-02-28T16:16:44;13.45;;;6.90;;
75504;SDS011;64085;54.974;73.410;2023-02-28T16:19:11;12.00;;;6.57;;
75504;SDS011;64085;54.974;73.410;2023-02-28T16:21:37;9.50;;;5.43;;
75504;SDS011;64085;54.974;73.410;2023-02-28T16:24:03;14.00;;;7.18;;
75504;SDS011;64085;54.974;73.410;2023-02-28T16:26:29;13.02;;;7.30;;
75504;SDS011;64085;54.974;73.410;2023-02-28T16:28:54;12.43;;;7.30;;
75504;SDS011;64085;54.974;73.410;2023-02-28T16:31:20;12.77;;;6.68;;
75504;SDS011;64085;54.974;73.410;2023-02-28T16:33:46;11.85;;;6.70;;
75504;SDS011;64085;54.974;73.410;2023-02-28T16:36:13;15.43;;;6.85;;
75504;SDS011;64085;54.974;73.410;2023-02-28T16:38:43;18.48;;;8.43;;
75504;SDS011;64085;54.974;73.410;2023-02-28T16:41:11;15.30;;;7.63;;
75504;SDS011;64085;54.974;73.410;2023-02-28T16:43:43;14.20;;;7.90;;
75504;SDS011;64085;54.974;73.410;2023-02-28T16:46:11;13.88;;;7.35;;
75504;SDS011;64085;54.974;73.410;2023-02-28T16:48:37;14.27;;;6.45;;
75504;SDS011;64085;54.974;73.410;2023-02-28T16:51:05;13.10;;;7.05;;
75504;SDS011;64085;54.974;73.410;2023-02-28T16:53:36;11.95;;;7.05;;
75504;SDS011;64085;54.974;73.410;2023-02-28T16:56:01;15.00;;;7.43;;
75504;SDS011;64085;54.974;73.410;2023-02-28T16:58:27;15.57;;;6.00;;
75504;SDS011;64085;54.974;73.410;2023-02-28T17:00:53;14.25;;;8.27;;
75504;SDS011;64085;54.974;73.410;2023-02-28T17:03:23;12.02;;;6.53;;
75504;SDS011;64085;54.974;73.410;2023-02-28T17:05:51;19.95;;;9.55;;
75504;SDS011;64085;54.974;73.410;2023-02-28T17:08:17;17.05;;;7.97;;
75504;SDS011;64085;54.974;73.410;2023-02-28T17:10:43;16.25;;;8.77;;
75504;SDS011;64085;54.974;73.410;2023-02-28T17:13:09;15.30;;;7.68;;
75504;SDS011;64085;54.974;73.410;2023-02-28T17:15:35;16.15;;;10.05;;
75504;SDS011;64085;54.974;73.410;2023-02-28T17:18:02;15.07;;;6.38;;
75504;SDS011;64085;54.974;73.410;2023-02-28T17:20:29;15.55;;;9.02;;
75504;SDS011;64085;54.974;73.410;2023-02-28T17:22:55;12.73;;;7.90;;
75504;SDS011;64085;54.974;73.410;2023-02-28T17:25:22;16.77;;;8.25;;
75504;SDS011;64085;54.974;73.410;2023-02-28T17:27:48;5.05;;;3.75;;
75504;SDS011;64085;54.974;73.410;2023-02-28T17:32:46;10.55;;;5.07;;
75504;SDS011;64085;54.974;73.410;2023-02-28T17:35:12;15.43;;;7.82;;
75504;SDS011;64085;54.974;73.410;2023-02-28T17:37:37;15.18;;;8.02;;
75504;SDS011;64085;54.974;73.410;2023-02-28T17:40:04;13.50;;;7.18;;
75504;SDS011;64085;54.974;73.410;2023-02-28T17:42:30;14.00;;;7.45;;
75504;SDS011;64085;54.974;73.410;2023-02-28T17:44:56;11.68;;;6.15;;
75504;SDS011;64085;54.974;73.410;2023-02-28T17:47:22;8.38;;;5.15;;
75504;SDS011;64085;54.974;73.410;2023-02-28T17:49:48;11.63;;;6.25;;
75504;SDS011;64085;54.974;73.410;2023-02-28T17:52:13;7.72;;;4.60;;
75504;SDS011;64085;54.974;73.410;2023-02-28T17:54:39;12.75;;;6.07;;
75504;SDS011;64085;54.974;73.410;2023-02-28T17:57:05;11.07;;;5.38;;
75504;SDS011;64085;54.974;73.410;2023-02-28T17:59:30;10.45;;;5.35;;
75504;SDS011;64085;54.974;73.410;2023-02-28T18:02:01;11.68;;;5.57;;
75504;SDS011;64085;54.974;73.410;2023-02-28T18:04:28;13.63;;;6.25;;
75504;SDS011;64085;54.974;73.410;2023-02-28T18:06:54;10.57;;;6.70;;
75504;SDS011;64085;54.974;73.410;2023-02-28T18:09:25;14.68;;;8.07;;
75504;SDS011;64085;54.974;73.410;2023-02-28T18:11:52;14.30;;;7.63;;
75504;SDS011;64085;54.974;73.410;2023-02-28T18:14:19;12.27;;;6.47;;
75504;SDS011;64085;54.974;73.410;2023-02-28T18:16:48;13.57;;;7.30;;
75504;SDS011;64085;54.974;73.410;2023-02-28T18:19:14;5.07;;;3.55;;
75504;SDS011;64085;54.974;73.410;2023-02-28T18:21:45;10.32;;;6.18;;
75504;SDS011;64085;54.974;73.410;2023-02-28T18:24:13;8.50;;;3.50;;
75504;SDS011;64085;54.974;73.410;2023-02-28T18:26:40;11.15;;;5.95;;
75504;SDS011;64085;54.974;73.410;2023-02-28T18:29:06;11.07;;;5.95;;
75504;SDS011;64085;54.974;73.410;2023-02-28T18:31:33;9.35;;;4.93;;
75504;SDS011;64085;54.974;73.410;2023-02-28T18:33:59;3.92;;;3.13;;
75504;SDS011;64085;54.974;73.410;2023-02-28T18:36:25;10.48;;;5.85;;
75504;SDS011;64085;54.974;73.410;2023-02-28T18:38:51;9.88;;;5.45;;
75504;SDS011;64085;54.974;73.410;2023-02-28T18:41:18;9.90;;;5.18;;
75504;SDS011;64085;54.974;73.410;2023-02-28T18:43:45;12.60;;;7.30;;
75504;SDS011;64085;54.974;73.410;2023-02-28T18:46:13;7.85;;;4.63;;
75504;SDS011;64085;54.974;73.410;2023-02-28T18:48:40;10.85;;;5.38;;
75504;SDS011;64085;54.974;73.410;2023-02-28T18:51:07;15.57;;;6.13;;
75504;SDS011;64085;54.974;73.410;2023-02-28T18:53:33;11.82;;;5.43;;
75504;SDS011;64085;54.974;73.410;2023-02-28T18:56:02;12.60;;;6.35;;
75504;SDS011;64085;54.974;73.410;2023-02-28T18:58:29;12.88;;;6.97;;
75504;SDS011;64085;54.974;73.410;2023-02-28T19:00:57;12.75;;;6.07;;
75504;SDS011;64085;54.974;73.410;2023-02-28T19:03:27;10.70;;;5.90;;
75504;SDS011;64085;54.974;73.410;2023-02-28T19:05:56;12.75;;;5.88;;
75504;SDS011;64085;54.974;73.410;2023-02-28T19:08:24;10.65;;;4.68;;
75504;SDS011;64085;54.974;73.410;2023-02-28T19:10:50;12.85;;;5.65;;
75504;SDS011;64085;54.974;73.410;2023-02-28T19:13:16;3.45;;;2.08;;
75504;SDS011;64085;54.974;73.410;2023-02-28T19:15:42;9.23;;;4.85;;
75504;SDS011;64085;54.974;73.410;2023-02-28T19:18:08;9.20;;;4.82;;
75504;SDS011;64085;54.974;73.410;2023-02-28T19:20:33;1.95;;;1.77;;
75504;SDS011;64085;54.974;73.410;2023-02-28T19:23:00;6.45;;;3.83;;
75504;SDS011;64085;54.974;73.410;2023-02-28T19:25:26;7.15;;;3.65;;
75504;SDS011;64085;54.974;73.410;2023-02-28T19:27:52;9.60;;;4.95;;
75504;SDS011;64085;54.974;73.410;2023-02-28T19:30:19;11.32;;;5.65;;
75504;SDS011;64085;54.974;73.410;2023-02-28T19:32:45;8.02;;;5.05;;
75504;SDS011;64085;54.974;73.410;2023-02-28T19:35:12;8.50;;;4.82;;
75504;SDS011;64085;54.974;73.410;2023-02-28T19:37:38;12.75;;;5.85;;
75504;SDS011;64085;54.974;73.410;2023-02-28T19:40:08;9.27;;;5.22;;
75504;SDS011;64085;54.974;73.410;2023-02-28T19:42:37;7.68;;;4.18;;
75504;SDS011;64085;54.974;73.410;2023-02-28T19:45:03;4.95;;;2.55;;
75504;SDS011;64085;54.974;73.410;2023-02-28T19:47:30;9.07;;;5.13;;
75504;SDS011;64085;54.974;73.410;2023-02-28T19:49:56;7.22;;;3.92;;
75504;SDS011;64085;54.974;73.410;2023-02-28T19:52:22;5.10;;;3.05;;
75504;SDS011;64085;54.974;73.410;2023-02-28T19:54:49;10.40;;;4.85;;
75504;SDS011;64085;54.974;73.410;2023-02-28T19:57:15;7.00;;;4.53;;
75504;SDS011;64085;54.974;73.410;2023-02-28T19:59:41;8.60;;;3.78;;
75504;SDS011;64085;54.974;73.410;2023-02-28T20:02:15;3.85;;;2.95;;
75504;SDS011;64085;54.974;73.410;2023-02-28T20:04:44;6.65;;;2.80;;
75504;SDS011;64085;54.974;73.410;2023-02-28T20:07:12;4.78;;;3.03;;
75504;SDS011;64085;54.974;73.410;2023-02-28T20:09:38;10.45;;;5.93;;
75504;SDS011;64085;54.974;73.410;2023-02-28T20:12:04;5.57;;;3.53;;
75504;SDS011;64085;54.974;73.410;2023-02-28T20:14:29;4.45;;;2.60;;
75504;SDS011;64085;54.974;73.410;2023-02-28T20:16:55;5.15;;;3.15;;
75504;SDS011;64085;54.974;73.410;2023-02-28T20:19:21;8.60;;;4.13;;
75504;SDS011;64085;54.974;73.410;2023-02-28T20:21:47;7.85;;;4.25;;
75504;SDS011;64085;54.974;73.410;2023-02-28T20:24:12;7.30;;;3.88;;
75504;SDS011;64085;54.974;73.410;2023-02-28T20:26:38;5.07;;;2.35;;
75504;SDS011;64085;54.974;73.410;2023-02-28T20:29:05;8.18;;;4.60;;
75504;SDS011;64085;54.974;73.410;2023-02-28T20:31:32;7.60;;;3.95;;
75504;SDS011;64085;54.974;73.410;2023-02-28T20:34:02;9.00;;;4.13;;
75504;SDS011;64085;54.974;73.410;2023-02-28T20:36:28;5.05;;;3.10;;
75504;SDS011;64085;54.974;73.410;2023-02-28T20:38:54;6.38;;;4.38;;
75504;SDS011;64085;54.974;73.410;2023-02-28T20:41:20;7.75;;;4.53;;
75504;SDS011;64085;54.974;73.410;2023-02-28T20:43:46;3.92;;;1.70;;
75504;SDS011;64085;54.974;73.410;2023-02-28T20:46:16;8.48;;;4.60;;
75504;SDS011;64085;54.974;73.410;2023-02-28T20:48:42;7.30;;;4.70;;
75504;SDS011;64085;54.974;73.410;2023-02-28T20:51:07;7.63;;;3.72;;
75504;SDS011;64085;54.974;73.410;2023-02-28T20:53:33;7.40;;;3.00;;
75504;SDS011;64085;54.974;73.410;2023-02-28T20:56:04;2.88;;;1.20;;
75504;SDS011;64085;54.974;73.410;2023-02-28T20:58:33;8.98;;;3.65;;
75504;SDS011;64085;54.974;73.410;2023-02-28T21:01:02;5.85;;;2.10;;
75504;SDS011;64085;54.974;73.410;2023-02-28T21:03:36;8.23;;;4.80;;
75504;SDS011;64085;54.974;73.410;2023-02-28T21:06:04;8.30;;;4.22;;
75504;SDS011;64085;54.974;73.410;2023-02-28T21:08:31;7.65;;;4.65;;
75504;SDS011;64085;54.974;73.410;2023-02-28T21:10:58;7.07;;;4.18;;
75504;SDS011;64085;54.974;73.410;2023-02-28T21:13:24;8.18;;;4.82;;
75504;SDS011;64085;54.974;73.410;2023-02-28T21:15:51;8.20;;;4.65;;
75504;SDS011;64085;54.974;73.410;2023-02-28T21:18:17;9.18;;;4.20;;
75504;SDS011;64085;54.974;73.410;2023-02-28T21:20:43;8.45;;;4.32;;
75504;SDS011;64085;54.974;73.410;2023-02-28T21:23:08;2.70;;;2.20;;
75504;SDS011;64085;54.974;73.410;2023-02-28T21:25:34;6.63;;;3.05;;
75504;SDS011;64085;54.974;73.410;2023-02-28T21:28:00;5.85;;;3.22;;
75504;SDS011;64085;54.974;73.410;2023-02-28T21:30:28;9.10;;;4.28;;
75504;SDS011;64085;54.974;73.410;2023-02-28T21:32:54;3.42;;;2.38;;
75504;SDS011;64085;54.974;73.410;2023-02-28T21:35:21;5.47;;;3.38;;
75504;SDS011;64085;54.974;73.410;2023-02-28T21:37:47;2.88;;;2.00;;
75504;SDS011;64085;54.974;73.410;2023-02-28T21:40:12;7.47;;;4.40;;
75504;SDS011;64085;54.974;73.410;2023-02-28T21:42:38;4.00;;;2.92;;
75504;SDS011;64085;54.974;73.410;2023-02-28T21:45:04;5.35;;;3.45;;
75504;SDS011;64085;54.974;73.410;2023-02-28T21:47:30;4.55;;;3.25;;
75504;SDS011;64085;54.974;73.410;2023-02-28T21:49:56;7.47;;;4.05;;
75504;SDS011;64085;54.974;73.410;2023-02-28T21:52:21;4.97;;;2.67;;
75504;SDS011;64085;54.974;73.410;2023-02-28T21:54:47;7.30;;;3.65;;
75504;SDS011;64085;54.974;73.410;2023-02-28T21:57:13;6.28;;;3.33;;
75504;SDS011;64085;54.974;73.410;2023-02-28T21:59:40;4.47;;;2.75;;
75504;SDS011;64085;54.974;73.410;2023-02-28T22:02:09;4.15;;;2.63;;
75504;SDS011;64085;54.974;73.410;2023-02-28T22:04:36;3.17;;;2.45;;
75504;SDS011;64085;54.974;73.410;2023-02-28T22:07:02;5.45;;;2.83;;
75504;SDS011;64085;54.974;73.410;2023-02-28T22:09:28;7.05;;;3.53;;
75504;SDS011;64085;54.974;73.410;2023-02-28T22:11:55;7.20;;;5.20;;
75504;SDS011;64085;54.974;73.410;2023-02-28T22:14:21;3.97;;;2.72;;
75504;SDS011;64085;54.974;73.410;2023-02-28T22:16:47;5.63;;;3.30;;
75504;SDS011;64085;54.974;73.410;2023-02-28T22:19:12;2.45;;;1.50;;
75504;SDS011;64085;54.974;73.410;2023-02-28T22:21:39;6.65;;;4.25;;
75504;SDS011;64085;54.974;73.410;2023-02-28T22:24:07;6.68;;;3.25;;
75504;SDS011;64085;54.974;73.410;2023-02-28T22:26:34;6.72;;;3.75;;
75504;SDS011;64085;54.974;73.410;2023-02-28T22:29:01;6.57;;;3.00;;
75504;SDS011;64085;54.974;73.410;2023-02-28T22:31:29;5.63;;;3.03;;
75504;SDS011;64085;54.974;73.410;2023-02-28T22:33:57;6.38;;;2.67;;
75504;SDS011;64085;54.974;73.410;2023-02-28T22:36:25;3.28;;;2.28;;
75504;SDS011;64085;54.974;73.410;2023-02-28T22:38:52;5.43;;;2.75;;
75504;SDS011;64085;54.974;73.410;2023-02-28T22:41:19;3.97;;;2.72;;
75504;SDS011;64085;54.974;73.410;2023-02-28T22:43:50;4.78;;;2.53;;
75504;SDS011;64085;54.974;73.410;2023-02-28T22:46:18;2.97;;;1.55;;
75504;SDS011;64085;54.974;73.410;2023-02-28T22:48:44;5.35;;;3.45;;
75504;SDS011;64085;54.974;73.410;2023-02-28T22:51:16;2.58;;;1.77;;
75504;SDS011;64085;54.974;73.410;2023-02-28T22:53:44;5.63;;;3.33;;
75504;SDS011;64085;54.974;73.410;2023-02-28T22:56:13;3.50;;;2.42;;
75504;SDS011;64085;54.974;73.410;2023-02-28T22:58:39;5.00;;;2.85;;
75504;SDS011;64085;54.974;73.410;2023-02-28T23:03:36;3.83;;;2.70;;
75504;SDS011;64085;54.974;73.410;2023-02-28T23:06:10;3.13;;;1.70;;
75504;SDS011;64085;54.974;73.410;2023-02-28T23:08:57;5.05;;;3.08;;
75504;SDS011;64085;54.974;73.410;2023-02-28T23:11:25;3.63;;;1.08;;
75504;SDS011;64085;54.974;73.410;2023-02-28T23:13:53;3.88;;;2.60;;
75504;SDS011;64085;54.974;73.410;2023-02-28T23:16:33;4.75;;;2.45;;
75504;SDS011;64085;54.974;73.410;2023-02-28T23:19:01;3.25;;;2.28;;
75504;SDS011;64085;54.974;73.410;2023-02-28T23:21:28;7.05;;;2.60;;
75504;SDS011;64085;54.974;73.410;2023-02-28T23:23:54;6.40;;;3.80;;
75504;SDS011;64085;54.974;73.410;2023-02-28T23:26:20;6.70;;;3.40;;
75504;SDS011;64085;54.974;73.410;2023-02-28T23:28:46;2.95;;;2.65;;
75504;SDS011;64085;54.974;73.410;2023-02-28T23:31:12;2.83;;;2.40;;
75504;SDS011;64085;54.974;73.410;2023-02-28T23:33:38;6.00;;;3.05;;
75504;SDS011;64085;54.974;73.410;2023-02-28T23:36:08;5.68;;;3.17;;
75504;SDS011;64085;54.974;73.410;2023-02-28T23:38:36;3.03;;;2.00;;